sensor_id;sensor_type;location;lat;lon;timestamp;pressure;altitude;pressure_sealevel;temperature;humidity
65897;BME280;52677;50.898;10.854;2023-08-21T00:00:27;99109.44;;;19.15;100.00
65897;BME280;52677;50.898;10.854;2023-08-21T00:02:27;99109.38;;;19.18;100.00
65897;BME280;52677;50.898;10.854;2023-08-21T00:04:28;99122.59;;;19.21;100.00
65897;BME280;52677;50.898;10.854;2023-08-21T00:06:28;99117.50;;;19.13;100.00
65897;BME280;52677;50.898;10.854;2023-08-21T00:08:28;99109.97;;;19.06;100.00
65897;BME280;52677;50.898;10.854;2023-08-21T00:10:30;99114.41;;;19.03;100.00
65897;BME280;52677;50.898;10.854;2023-08-21T00:12:30;99112.34;;;19.07;100.00
65897;BME280;52677;50.898;10.854;2023-08-21T00:14:30;99111.22;;;19.01;100.00
65897;BME280;52677;50.898;10.854;2023-08-21T00:16:31;99109.28;;;18.95;100.00
65897;BME280;52677;50.898;10.854;2023-08-21T00:18:31;99114.94;;;18.91;100.00
65897;BME280;52677;50.898;10.854;2023-08-21T00:20:31;99109.47;;;18.80;100.00
65897;BME280;52677;50.898;10.854;2023-08-21T00:22:32;99117.09;;;18.80;100.00
65897;BME280;52677;50.898;10.854;2023-08-21T00:24:32;99109.91;;;18.75;100.00
65897;BME280;52677;50.898;10.854;2023-08-21T00:26:33;99105.53;;;18.74;100.00
65897;BME280;52677;50.898;10.854;2023-08-21T00:28:33;99115.56;;;18.72;100.00
65897;BME280;52677;50.898;10.854;2023-08-21T00:30:34;99114.00;;;18.67;100.00
65897;BME280;52677;50.898;10.854;2023-08-21T00:32:35;99118.03;;;18.66;100.00
65897;BME280;52677;50.898;10.854;2023-08-21T00:34:35;99114.47;;;18.62;100.00
65897;BME280;52677;50.898;10.854;2023-08-21T00:36:35;99117.69;;;18.57;100.00
65897;BME280;52677;50.898;10.854;2023-08-21T00:38:36;99120.88;;;18.59;100.00
65897;BME280;52677;50.898;10.854;2023-08-21T00:40:36;99120.13;;;18.55;100.00
65897;BME280;52677;50.898;10.854;2023-08-21T00:42:36;99110.09;;;18.58;100.00
65897;BME280;52677;50.898;10.854;2023-08-21T00:44:37;99106.13;;;18.55;100.00
65897;BME280;52677;50.898;10.854;2023-08-21T00:46:37;99103.31;;;18.55;100.00
65897;BME280;52677;50.898;10.854;2023-08-21T00:48:37;99104.13;;;18.56;100.00
65897;BME280;52677;50.898;10.854;2023-08-21T00:50:38;99098.09;;;18.57;100.00
65897;BME280;52677;50.898;10.854;2023-08-21T00:52:39;99105.69;;;18.57;100.00
65897;BME280;52677;50.898;10.854;2023-08-21T00:54:40;99101.69;;;18.58;100.00
65897;BME280;52677;50.898;10.854;2023-08-21T00:56:41;99103.28;;;18.59;100.00
65897;BME280;52677;50.898;10.854;2023-08-21T00:58:42;99105.66;;;18.60;100.00
65897;BME280;52677;50.898;10.854;2023-08-21T01:00:45;99110.00;;;18.65;100.00
65897;BME280;52677;50.898;10.854;2023-08-21T01:02:47;99100.00;;;18.67;100.00
65897;BME280;52677;50.898;10.854;2023-08-21T01:04:47;99100.41;;;18.66;100.00
65897;BME280;52677;50.898;10.854;2023-08-21T01:06:48;99099.56;;;18.69;100.00
65897;BME280;52677;50.898;10.854;2023-08-21T01:08:56;99095.97;;;18.72;100.00
65897;BME280;52677;50.898;10.854;2023-08-21T01:13:11;99095.09;;;18.75;100.00
65897;BME280;52677;50.898;10.854;2023-08-21T01:15:14;99100.63;;;18.82;100.00
65897;BME280;52677;50.898;10.854;2023-08-21T01:17:16;99089.00;;;18.84;100.00
65897;BME280;52677;50.898;10.854;2023-08-21T01:21:38;99098.25;;;18.80;100.00
65897;BME280;52677;50.898;10.854;2023-08-21T01:23:41;99101.88;;;18.77;100.00
65897;BME280;52677;50.898;10.854;2023-08-21T01:25:42;99101.09;;;18.77;100.00
65897;BME280;52677;50.898;10.854;2023-08-21T01:27:46;99099.91;;;18.74;100.00
65897;BME280;52677;50.898;10.854;2023-08-21T01:29:48;99095.53;;;18.73;100.00
65897;BME280;52677;50.898;10.854;2023-08-21T01:34:14;99090.38;;;18.68;100.00
65897;BME280;52677;50.898;10.854;2023-08-21T01:36:15;99087.59;;;18.65;100.00
65897;BME280;52677;50.898;10.854;2023-08-21T01:38:16;99090.41;;;18.61;100.00
65897;BME280;52677;50.898;10.854;2023-08-21T01:40:21;99093.69;;;18.56;100.00
65897;BME280;52677;50.898;10.854;2023-08-21T01:42:21;99095.28;;;18.57;100.00
65897;BME280;52677;50.898;10.854;2023-08-21T01:44:22;99083.69;;;18.55;100.00
65897;BME280;52677;50.898;10.854;2023-08-21T01:46:22;99084.94;;;18.50;100.00
65897;BME280;52677;50.898;10.854;2023-08-21T01:48:23;99089.00;;;18.46;100.00
65897;BME280;52677;50.898;10.854;2023-08-21T01:50:24;99086.59;;;18.44;100.00
65897;BME280;52677;50.898;10.854;2023-08-21T01:52:25;99081.03;;;18.41;100.00
65897;BME280;52677;50.898;10.854;2023-08-21T01:54:25;99085.00;;;18.43;100.00
65897;BME280;52677;50.898;10.854;2023-08-21T01:56:25;99088.59;;;18.44;100.00
65897;BME280;52677;50.898;10.854;2023-08-21T01:58:26;99089.44;;;18.41;100.00
65897;BME280;52677;50.898;10.854;2023-08-21T02:00:26;99096.28;;;18.36;100.00
65897;BME280;52677;50.898;10.854;2023-08-21T02:02:26;99094.75;;;18.32;100.00
65897;BME280;52677;50.898;10.854;2023-08-21T02:04:27;99090.44;;;18.23;100.00
65897;BME280;52677;50.898;10.854;2023-08-21T02:06:27;99085.63;;;18.24;100.00
65897;BME280;52677;50.898;10.854;2023-08-21T02:08:31;99096.03;;;18.23;100.00
65897;BME280;52677;50.898;10.854;2023-08-21T02:10:32;99094.44;;;18.22;100.00
65897;BME280;52677;50.898;10.854;2023-08-21T02:12:33;99084.03;;;18.23;100.00
65897;BME280;52677;50.898;10.854;2023-08-21T02:14:33;99088.00;;;18.25;100.00
65897;BME280;52677;50.898;10.854;2023-08-21T02:16:33;99085.25;;;18.22;100.00
65897;BME280;52677;50.898;10.854;2023-08-21T02:18:34;99094.09;;;18.17;100.00
65897;BME280;52677;50.898;10.854;2023-08-21T02:20:34;99092.53;;;18.12;100.00
65897;BME280;52677;50.898;10.854;2023-08-21T02:22:35;99089.69;;;18.16;100.00
65897;BME280;52677;50.898;10.854;2023-08-21T02:24:35;99088.84;;;18.19;100.00
65897;BME280;52677;50.898;10.854;2023-08-21T02:26:35;99095.66;;;18.18;100.00
65897;BME280;52677;50.898;10.854;2023-08-21T02:28:35;99096.50;;;18.15;100.00
65897;BME280;52677;50.898;10.854;2023-08-21T02:30:40;99098.13;;;18.12;100.00
65897;BME280;52677;50.898;10.854;2023-08-21T02:32:40;99094.50;;;18.12;100.00
65897;BME280;52677;50.898;10.854;2023-08-21T02:34:40;99084.94;;;18.13;100.00
65897;BME280;52677;50.898;10.854;2023-08-21T02:36:41;99085.69;;;18.17;100.00
65897;BME280;52677;50.898;10.854;2023-08-21T02:38:41;99092.44;;;18.19;100.00
65897;BME280;52677;50.898;10.854;2023-08-21T02:40:41;99091.69;;;18.15;100.00
65897;BME280;52677;50.898;10.854;2023-08-21T02:42:42;99086.53;;;18.10;100.00
65897;BME280;52677;50.898;10.854;2023-08-21T02:44:42;99096.56;;;18.08;100.00
65897;BME280;52677;50.898;10.854;2023-08-21T02:46:42;99094.19;;;18.03;100.00
65897;BME280;52677;50.898;10.854;2023-08-21T02:48:43;99085.44;;;18.01;100.00
65897;BME280;52677;50.898;10.854;2023-08-21T02:50:43;99099.06;;;17.99;100.00
65897;BME280;52677;50.898;10.854;2023-08-21T02:52:43;99090.66;;;17.99;100.00
65897;BME280;52677;50.898;10.854;2023-08-21T02:54:44;99095.88;;;17.96;100.00
65897;BME280;52677;50.898;10.854;2023-08-21T02:56:44;99097.09;;;17.92;100.00
65897;BME280;52677;50.898;10.854;2023-08-21T02:58:44;99093.13;;;17.89;100.00
65897;BME280;52677;50.898;10.854;2023-08-21T03:00:45;99096.72;;;17.86;100.00
65897;BME280;52677;50.898;10.854;2023-08-21T03:02:45;99092.81;;;17.80;100.00
65897;BME280;52677;50.898;10.854;2023-08-21T03:04:45;99097.63;;;17.76;100.00
65897;BME280;52677;50.898;10.854;2023-08-21T03:06:46;99097.63;;;17.69;100.00
65897;BME280;52677;50.898;10.854;2023-08-21T03:08:46;99102.44;;;17.68;100.00
65897;BME280;52677;50.898;10.854;2023-08-21T03:10:47;99101.66;;;17.68;100.00
65897;BME280;52677;50.898;10.854;2023-08-21T03:12:47;99096.88;;;17.65;100.00
65897;BME280;52677;50.898;10.854;2023-08-21T03:14:47;99101.28;;;17.62;100.00
65897;BME280;52677;50.898;10.854;2023-08-21T03:16:48;99098.47;;;17.66;100.00
65897;BME280;52677;50.898;10.854;2023-08-21T03:18:56;99100.09;;;17.63;100.00
65897;BME280;52677;50.898;10.854;2023-08-21T03:20:57;99097.69;;;17.62;100.00
65897;BME280;52677;50.898;10.854;2023-08-21T03:22:57;99099.69;;;17.61;100.00
65897;BME280;52677;50.898;10.854;2023-08-21T03:24:58;99104.50;;;17.61;100.00
65897;BME280;52677;50.898;10.854;2023-08-21T03:26:58;99098.13;;;17.57;100.00
65897;BME280;52677;50.898;10.854;2023-08-21T03:28:59;99102.16;;;17.52;100.00
65897;BME280;52677;50.898;10.854;2023-08-21T03:30:59;99099.78;;;17.51;100.00
65897;BME280;52677;50.898;10.854;2023-08-21T03:33:00;99099.00;;;17.47;100.00
65897;BME280;52677;50.898;10.854;2023-08-21T03:35:01;99097.00;;;17.44;100.00
65897;BME280;52677;50.898;10.854;2023-08-21T03:37:01;99102.22;;;17.41;100.00
65897;BME280;52677;50.898;10.854;2023-08-21T03:39:02;99091.47;;;17.36;100.00
65897;BME280;52677;50.898;10.854;2023-08-21T03:41:04;99107.84;;;17.38;100.00
65897;BME280;52677;50.898;10.854;2023-08-21T03:43:05;99097.09;;;17.33;100.00
65897;BME280;52677;50.898;10.854;2023-08-21T03:45:06;99102.69;;;17.33;100.00
65897;BME280;52677;50.898;10.854;2023-08-21T03:47:06;99106.28;;;17.33;100.00
65897;BME280;52677;50.898;10.854;2023-08-21T03:49:07;99110.28;;;17.32;100.00
65897;BME280;52677;50.898;10.854;2023-08-21T03:51:07;99104.31;;;17.30;100.00
65897;BME280;52677;50.898;10.854;2023-08-21T03:53:07;99108.66;;;17.35;100.00
65897;BME280;52677;50.898;10.854;2023-08-21T03:55:08;99101.44;;;17.41;100.00
65897;BME280;52677;50.898;10.854;2023-08-21T03:57:08;99111.81;;;17.40;100.00
65897;BME280;52677;50.898;10.854;2023-08-21T03:59:08;99101.81;;;17.43;100.00
65897;BME280;52677;50.898;10.854;2023-08-21T04:01:09;99106.19;;;17.48;100.00
65897;BME280;52677;50.898;10.854;2023-08-21T04:03:09;99094.22;;;17.47;100.00
65897;BME280;52677;50.898;10.854;2023-08-21T04:05:09;99104.16;;;17.52;100.00
65897;BME280;52677;50.898;10.854;2023-08-21T04:07:12;99100.16;;;17.53;100.00
65897;BME280;52677;50.898;10.854;2023-08-21T04:09:12;99103.34;;;17.55;100.00
65897;BME280;52677;50.898;10.854;2023-08-21T04:11:12;99100.56;;;17.55;100.00
65897;BME280;52677;50.898;10.854;2023-08-21T04:13:13;99103.34;;;17.55;100.00
65897;BME280;52677;50.898;10.854;2023-08-21T04:15:13;99111.75;;;17.55;100.00
65897;BME280;52677;50.898;10.854;2023-08-21T04:17:13;99109.75;;;17.52;100.00
65897;BME280;52677;50.898;10.854;2023-08-21T04:19:14;99103.38;;;17.51;100.00
65897;BME280;52677;50.898;10.854;2023-08-21T04:21:14;99105.75;;;17.56;100.00
65897;BME280;52677;50.898;10.854;2023-08-21T04:23:15;99106.94;;;17.55;100.00
65897;BME280;52677;50.898;10.854;2023-08-21T04:25:15;99099.78;;;17.51;100.00
65897;BME280;52677;50.898;10.854;2023-08-21T04:27:16;99110.97;;;17.51;100.00
65897;BME280;52677;50.898;10.854;2023-08-21T04:29:16;99112.59;;;17.48;100.00
65897;BME280;52677;50.898;10.854;2023-08-21T04:31:16;99104.59;;;17.47;100.00
65897;BME280;52677;50.898;10.854;2023-08-21T04:33:17;99107.00;;;17.45;100.00
65897;BME280;52677;50.898;10.854;2023-08-21T04:35:17;99102.19;;;17.45;100.00
65897;BME280;52677;50.898;10.854;2023-08-21T04:37:17;99103.44;;;17.40;100.00
65897;BME280;52677;50.898;10.854;2023-08-21T04:39:18;99103.06;;;17.35;100.00
65897;BME280;52677;50.898;10.854;2023-08-21T04:41:18;99101.88;;;17.32;100.00
65897;BME280;52677;50.898;10.854;2023-08-21T04:43:19;99105.47;;;17.33;100.00
65897;BME280;52677;50.898;10.854;2023-08-21T04:45:19;99109.88;;;17.34;100.00
65897;BME280;52677;50.898;10.854;2023-08-21T04:47:20;99115.03;;;17.35;100.00
65897;BME280;52677;50.898;10.854;2023-08-21T04:49:21;99115.03;;;17.35;100.00
65897;BME280;52677;50.898;10.854;2023-08-21T04:51:22;99110.25;;;17.36;100.00
65897;BME280;52677;50.898;10.854;2023-08-21T04:53:22;99117.00;;;17.42;100.00
65897;BME280;52677;50.898;10.854;2023-08-21T04:55:22;99107.41;;;17.43;100.00
65897;BME280;52677;50.898;10.854;2023-08-21T04:57:24;99118.97;;;17.45;100.00
65897;BME280;52677;50.898;10.854;2023-08-21T04:59:24;99128.53;;;17.51;100.00
65897;BME280;52677;50.898;10.854;2023-08-21T05:01:24;99132.91;;;17.56;100.00
65897;BME280;52677;50.898;10.854;2023-08-21T05:03:26;99128.09;;;17.60;100.00
65897;BME280;52677;50.898;10.854;2023-08-21T05:05:26;99130.88;;;17.60;100.00
65897;BME280;52677;50.898;10.854;2023-08-21T05:07:27;99134.84;;;17.62;100.00
65897;BME280;52677;50.898;10.854;2023-08-21T05:09:27;99144.03;;;17.66;100.00
65897;BME280;52677;50.898;10.854;2023-08-21T05:11:27;99149.25;;;17.72;100.00
65897;BME280;52677;50.898;10.854;2023-08-21T05:13:28;99154.38;;;17.80;100.00
65897;BME280;52677;50.898;10.854;2023-08-21T05:15:28;99154.75;;;17.82;100.00
65897;BME280;52677;50.898;10.854;2023-08-21T05:17:28;99154.69;;;17.93;100.00
65897;BME280;52677;50.898;10.854;2023-08-21T05:19:29;99153.91;;;17.89;100.00
65897;BME280;52677;50.898;10.854;2023-08-21T05:21:30;99151.13;;;17.89;100.00
65897;BME280;52677;50.898;10.854;2023-08-21T05:23:30;99163.13;;;17.86;100.00
65897;BME280;52677;50.898;10.854;2023-08-21T05:25:31;99156.75;;;17.82;100.00
65897;BME280;52677;50.898;10.854;2023-08-21T05:27:32;99161.13;;;17.86;100.00
65897;BME280;52677;50.898;10.854;2023-08-21T05:29:32;99165.53;;;17.84;100.00
65897;BME280;52677;50.898;10.854;2023-08-21T05:31:33;99164.31;;;17.88;100.00
65897;BME280;52677;50.898;10.854;2023-08-21T05:33:33;99158.72;;;17.85;100.00
65897;BME280;52677;50.898;10.854;2023-08-21T05:35:34;99156.72;;;17.89;100.00
65897;BME280;52677;50.898;10.854;2023-08-21T05:37:35;99172.66;;;17.95;100.00
65897;BME280;52677;50.898;10.854;2023-08-21T05:39:36;99175.84;;;17.98;100.00
65897;BME280;52677;50.898;10.854;2023-08-21T05:41:36;99167.88;;;17.96;100.00
65897;BME280;52677;50.898;10.854;2023-08-21T05:43:37;99164.66;;;17.98;100.00
65897;BME280;52677;50.898;10.854;2023-08-21T05:45:37;99177.78;;;18.08;100.00
65897;BME280;52677;50.898;10.854;2023-08-21T05:47:37;99174.94;;;18.11;100.00
65897;BME280;52677;50.898;10.854;2023-08-21T05:49:38;99181.28;;;18.19;100.00
65897;BME280;52677;50.898;10.854;2023-08-21T05:51:38;99178.03;;;18.24;100.00
65897;BME280;52677;50.898;10.854;2023-08-21T05:53:39;99182.38;;;18.32;100.00
65897;BME280;52677;50.898;10.854;2023-08-21T05:55:39;99184.69;;;18.41;100.00
65897;BME280;52677;50.898;10.854;2023-08-21T05:57:40;99177.44;;;18.47;100.00
65897;BME280;52677;50.898;10.854;2023-08-21T05:59:44;99184.19;;;18.53;100.00
65897;BME280;52677;50.898;10.854;2023-08-21T06:01:45;99183.31;;;18.63;100.00
65897;BME280;52677;50.898;10.854;2023-08-21T06:03:45;99192.84;;;18.73;100.00
65897;BME280;52677;50.898;10.854;2023-08-21T06:05:45;99179.56;;;18.77;100.00
65897;BME280;52677;50.898;10.854;2023-08-21T06:07:47;99177.47;;;18.88;100.00
65897;BME280;52677;50.898;10.854;2023-08-21T06:09:47;99180.16;;;18.99;100.00
65897;BME280;52677;50.898;10.854;2023-08-21T06:11:48;99181.25;;;19.08;100.00
65897;BME280;52677;50.898;10.854;2023-08-21T06:13:48;99175.13;;;19.17;100.00
65897;BME280;52677;50.898;10.854;2023-08-21T06:15:48;99173.41;;;19.27;100.00
65897;BME280;52677;50.898;10.854;2023-08-21T06:17:49;99179.28;;;19.36;100.00
65897;BME280;52677;50.898;10.854;2023-08-21T06:19:49;99178.91;;;19.38;100.00
65897;BME280;52677;50.898;10.854;2023-08-21T06:21:50;99179.59;;;19.45;100.00
65897;BME280;52677;50.898;10.854;2023-08-21T06:23:50;99186.31;;;19.51;100.00
65897;BME280;52677;50.898;10.854;2023-08-21T06:25:51;99189.09;;;19.55;100.00
65897;BME280;52677;50.898;10.854;2023-08-21T06:27:51;99181.50;;;19.52;100.00
65897;BME280;52677;50.898;10.854;2023-08-21T06:29:51;99193.88;;;19.58;100.00
65897;BME280;52677;50.898;10.854;2023-08-21T06:31:52;99188.16;;;19.65;100.00
65897;BME280;52677;50.898;10.854;2023-08-21T06:33:52;99187.31;;;19.68;100.00
65897;BME280;52677;50.898;10.854;2023-08-21T06:35:52;99186.50;;;19.71;100.00
65897;BME280;52677;50.898;10.854;2023-08-21T06:37:53;99192.47;;;19.73;100.00
65897;BME280;52677;50.898;10.854;2023-08-21T06:39:54;99192.00;;;19.78;100.00
65897;BME280;52677;50.898;10.854;2023-08-21T06:41:54;99195.09;;;19.87;100.00
65897;BME280;52677;50.898;10.854;2023-08-21T06:43:55;99192.56;;;19.93;100.00
65897;BME280;52677;50.898;10.854;2023-08-21T06:45:56;99194.06;;;20.01;100.00
65897;BME280;52677;50.898;10.854;2023-08-21T06:47:56;99189.22;;;20.02;100.00
65897;BME280;52677;50.898;10.854;2023-08-21T06:49:56;99202.38;;;20.08;100.00
65897;BME280;52677;50.898;10.854;2023-08-21T06:51:57;99194.69;;;20.12;100.00
65897;BME280;52677;50.898;10.854;2023-08-21T06:53:57;99209.44;;;20.20;100.00
65897;BME280;52677;50.898;10.854;2023-08-21T06:55:57;99201.72;;;20.24;100.00
65897;BME280;52677;50.898;10.854;2023-08-21T06:57:58;99204.50;;;20.28;100.00
65897;BME280;52677;50.898;10.854;2023-08-21T06:59:58;99207.97;;;20.35;100.00
65897;BME280;52677;50.898;10.854;2023-08-21T07:01:58;99204.69;;;20.40;100.00
65897;BME280;52677;50.898;10.854;2023-08-21T07:03:59;99206.97;;;20.49;100.00
65897;BME280;52677;50.898;10.854;2023-08-21T07:05:59;99206.84;;;20.56;100.00
65897;BME280;52677;50.898;10.854;2023-08-21T07:08:00;99203.56;;;20.61;100.00
65897;BME280;52677;50.898;10.854;2023-08-21T07:10:00;99216.69;;;20.68;100.00
65897;BME280;52677;50.898;10.854;2023-08-21T07:12:01;99211.00;;;20.71;100.00
65897;BME280;52677;50.898;10.854;2023-08-21T07:14:02;99208.91;;;20.75;100.00
65897;BME280;52677;50.898;10.854;2023-08-21T07:16:03;99205.19;;;20.82;100.00
65897;BME280;52677;50.898;10.854;2023-08-21T07:18:05;99208.34;;;20.84;100.00
65897;BME280;52677;50.898;10.854;2023-08-21T07:20:06;99208.59;;;20.93;100.00
65897;BME280;52677;50.898;10.854;2023-08-21T07:22:07;99216.47;;;21.02;100.00
65897;BME280;52677;50.898;10.854;2023-08-21T07:24:07;99207.09;;;21.09;100.00
65897;BME280;52677;50.898;10.854;2023-08-21T07:26:07;99212.59;;;21.16;100.00
65897;BME280;52677;50.898;10.854;2023-08-21T07:28:08;99206.09;;;21.19;100.00
65897;BME280;52677;50.898;10.854;2023-08-21T07:30:11;99219.22;;;21.25;100.00
65897;BME280;52677;50.898;10.854;2023-08-21T07:32:11;99221.50;;;21.34;100.00
65897;BME280;52677;50.898;10.854;2023-08-21T07:34:12;99217.31;;;21.42;100.00
65897;BME280;52677;50.898;10.854;2023-08-21T07:36:12;99216.72;;;21.51;100.00
65897;BME280;52677;50.898;10.854;2023-08-21T07:38:17;99223.00;;;21.58;100.00
65897;BME280;52677;50.898;10.854;2023-08-21T07:40:17;99213.31;;;21.59;100.00
65897;BME280;52677;50.898;10.854;2023-08-21T07:42:17;99223.72;;;21.63;100.00
65897;BME280;52677;50.898;10.854;2023-08-21T07:44:18;99216.44;;;21.65;100.00
65897;BME280;52677;50.898;10.854;2023-08-21T07:46:19;99213.03;;;21.74;100.00
65897;BME280;52677;50.898;10.854;2023-08-21T07:48:19;99214.09;;;21.80;100.00
65897;BME280;52677;50.898;10.854;2023-08-21T07:50:19;99219.56;;;21.87;100.00
65897;BME280;52677;50.898;10.854;2023-08-21T07:52:20;99215.88;;;21.90;100.00
65897;BME280;52677;50.898;10.854;2023-08-21T07:54:20;99213.00;;;21.94;100.00
65897;BME280;52677;50.898;10.854;2023-08-21T07:56:21;99214.84;;;22.00;100.00
65897;BME280;52677;50.898;10.854;2023-08-21T07:58:21;99213.19;;;22.03;100.00
65897;BME280;52677;50.898;10.854;2023-08-21T08:00:21;99211.81;;;22.11;100.00
65897;BME280;52677;50.898;10.854;2023-08-21T08:02:23;99210.59;;;22.12;100.00
65897;BME280;52677;50.898;10.854;2023-08-21T08:04:23;99209.69;;;22.15;100.00
65897;BME280;52677;50.898;10.854;2023-08-21T08:06:24;99205.19;;;22.18;100.00
65897;BME280;52677;50.898;10.854;2023-08-21T08:08:24;99210.84;;;22.18;100.00
65897;BME280;52677;50.898;10.854;2023-08-21T08:10:25;99206.38;;;22.20;100.00
65897;BME280;52677;50.898;10.854;2023-08-21T08:12:26;99205.81;;;22.25;100.00
65897;BME280;52677;50.898;10.854;2023-08-21T08:14:26;99201.97;;;22.19;100.00
65897;BME280;52677;50.898;10.854;2023-08-21T08:16:26;99209.00;;;22.27;100.00
65897;BME280;52677;50.898;10.854;2023-08-21T08:18:27;99207.78;;;22.28;100.00
65897;BME280;52677;50.898;10.854;2023-08-21T08:20:27;99205.81;;;22.25;100.00
65897;BME280;52677;50.898;10.854;2023-08-21T08:22:28;99206.19;;;22.27;100.00
65897;BME280;52677;50.898;10.854;2023-08-21T08:24:28;99206.59;;;22.26;100.00
65897;BME280;52677;50.898;10.854;2023-08-21T08:26:29;99199.38;;;22.25;100.00
65897;BME280;52677;50.898;10.854;2023-08-21T08:28:29;99202.47;;;22.30;100.00
65897;BME280;52677;50.898;10.854;2023-08-21T08:30:29;99199.56;;;22.34;100.00
65897;BME280;52677;50.898;10.854;2023-08-21T08:32:30;99204.69;;;22.39;100.00
65897;BME280;52677;50.898;10.854;2023-08-21T08:34:30;99209.34;;;22.46;100.00
65897;BME280;52677;50.898;10.854;2023-08-21T08:36:30;99206.00;;;22.51;100.00
65897;BME280;52677;50.898;10.854;2023-08-21T08:38:31;99201.75;;;22.59;100.00
65897;BME280;52677;50.898;10.854;2023-08-21T08:40:31;99200.44;;;22.63;100.00
65897;BME280;52677;50.898;10.854;2023-08-21T08:42:34;99200.72;;;22.69;100.00
65897;BME280;52677;50.898;10.854;2023-08-21T08:44:36;99207.31;;;22.79;100.00
65897;BME280;52677;50.898;10.854;2023-08-21T08:46:38;99203.94;;;22.84;100.00
65897;BME280;52677;50.898;10.854;2023-08-21T08:48:38;99202.97;;;22.90;100.00
65897;BME280;52677;50.898;10.854;2023-08-21T08:50:39;99199.72;;;22.92;100.00
65897;BME280;52677;50.898;10.854;2023-08-21T08:52:40;99194.19;;;22.88;100.00
65897;BME280;52677;50.898;10.854;2023-08-21T08:54:41;99201.66;;;22.95;100.00
65897;BME280;52677;50.898;10.854;2023-08-21T08:56:41;99198.38;;;22.96;100.00
65897;BME280;52677;50.898;10.854;2023-08-21T08:58:42;99190.03;;;22.93;100.00
65897;BME280;52677;50.898;10.854;2023-08-21T09:00:43;99185.97;;;22.94;100.00
65897;BME280;52677;50.898;10.854;2023-08-21T09:02:43;99187.81;;;23.01;100.00
65897;BME280;52677;50.898;10.854;2023-08-21T09:04:43;99188.22;;;22.99;100.00
65897;BME280;52677;50.898;10.854;2023-08-21T09:06:44;99178.91;;;23.02;100.00
65897;BME280;52677;50.898;10.854;2023-08-21T09:08:56;99174.72;;;23.07;100.00
65897;BME280;52677;50.898;10.854;2023-08-21T09:10:57;99182.44;;;23.19;100.00
65897;BME280;52677;50.898;10.854;2023-08-21T09:13:01;99172.88;;;23.29;100.00
65897;BME280;52677;50.898;10.854;2023-08-21T09:15:06;99174.78;;;23.32;100.00
65897;BME280;52677;50.898;10.854;2023-08-21T09:17:07;99164.09;;;23.40;100.00
65897;BME280;52677;50.898;10.854;2023-08-21T09:19:08;99177.66;;;23.45;100.00
65897;BME280;52677;50.898;10.854;2023-08-21T09:21:08;99166.38;;;23.45;100.00
65897;BME280;52677;50.898;10.854;2023-08-21T09:23:13;99168.75;;;23.46;100.00
65897;BME280;52677;50.898;10.854;2023-08-21T09:25:14;99170.31;;;23.47;100.00
65897;BME280;52677;50.898;10.854;2023-08-21T09:27:16;99169.44;;;23.50;100.00
65897;BME280;52677;50.898;10.854;2023-08-21T09:29:17;99160.50;;;23.52;100.00
65897;BME280;52677;50.898;10.854;2023-08-21T09:31:29;99165.94;;;23.59;100.00
65897;BME280;52677;50.898;10.854;2023-08-21T09:33:30;99154.09;;;23.64;100.00
65897;BME280;52677;50.898;10.854;2023-08-21T09:35:32;99172.09;;;23.70;100.00
65897;BME280;52677;50.898;10.854;2023-08-21T09:37:33;99161.44;;;23.74;100.00
65897;BME280;52677;50.898;10.854;2023-08-21T09:39:37;99161.34;;;23.78;100.00
65897;BME280;52677;50.898;10.854;2023-08-21T09:41:38;99154.78;;;23.81;100.00
65897;BME280;52677;50.898;10.854;2023-08-21T09:43:42;99161.81;;;23.89;100.00
65897;BME280;52677;50.898;10.854;2023-08-21T09:45:46;99159.31;;;24.04;100.00
65897;BME280;52677;50.898;10.854;2023-08-21T09:47:47;99152.97;;;24.13;100.00
65897;BME280;52677;50.898;10.854;2023-08-21T09:49:47;99154.78;;;24.19;100.00
65897;BME280;52677;50.898;10.854;2023-08-21T09:51:48;99156.69;;;24.22;100.00
65897;BME280;52677;50.898;10.854;2023-08-21T09:53:49;99155.91;;;24.22;100.00
65897;BME280;52677;50.898;10.854;2023-08-21T09:55:54;99152.53;;;24.27;100.00
65897;BME280;52677;50.898;10.854;2023-08-21T09:57:55;99145.16;;;24.29;100.00
65897;BME280;52677;50.898;10.854;2023-08-21T09:59:59;99142.91;;;24.37;100.00
65897;BME280;52677;50.898;10.854;2023-08-21T10:02:00;99145.81;;;24.46;100.00
65897;BME280;52677;50.898;10.854;2023-08-21T10:04:04;99147.50;;;24.56;100.00
65897;BME280;52677;50.898;10.854;2023-08-21T10:06:05;99137.50;;;24.64;100.00
65897;BME280;52677;50.898;10.854;2023-08-21T10:08:07;99137.06;;;24.66;100.00
65897;BME280;52677;50.898;10.854;2023-08-21T10:10:08;99139.31;;;24.71;100.00
65897;BME280;52677;50.898;10.854;2023-08-21T10:12:09;99133.19;;;24.73;100.00
65897;BME280;52677;50.898;10.854;2023-08-21T10:14:11;99137.94;;;24.76;100.00
65897;BME280;52677;50.898;10.854;2023-08-21T10:16:13;99138.13;;;24.81;100.00
65897;BME280;52677;50.898;10.854;2023-08-21T10:18:22;99131.22;;;24.82;100.00
65897;BME280;52677;50.898;10.854;2023-08-21T10:20:25;99130.16;;;24.89;100.00
65897;BME280;52677;50.898;10.854;2023-08-21T10:22:45;99133.22;;;24.94;100.00
65897;BME280;52677;50.898;10.854;2023-08-21T10:24:46;99122.31;;;25.06;100.00
65897;BME280;52677;50.898;10.854;2023-08-21T10:26:47;99121.13;;;25.16;100.00
65897;BME280;52677;50.898;10.854;2023-08-21T10:28:53;99115.66;;;25.21;100.00
65897;BME280;52677;50.898;10.854;2023-08-21T10:30:54;99110.97;;;25.28;100.00